sensor_id;sensor_type;location;lat;lon;timestamp;temperature;humidity
67161;DHT22;54088;52.238;21.104;2022-08-25T00:00:46;23.40;78.50
67161;DHT22;54088;52.238;21.104;2022-08-25T00:03:12;23.40;78.70
67161;DHT22;54088;52.238;21.104;2022-08-25T00:05:38;23.30;78.50
67161;DHT22;54088;52.238;21.104;2022-08-25T00:08:05;23.40;78.30
67161;DHT22;54088;52.238;21.104;2022-08-25T00:10:34;23.40;78.40
67161;DHT22;54088;52.238;21.104;2022-08-25T00:13:01;23.40;78.50
67161;DHT22;54088;52.238;21.104;2022-08-25T00:15:28;23.40;78.60
67161;DHT22;54088;52.238;21.104;2022-08-25T00:17:55;23.30;78.70
67161;DHT22;54088;52.238;21.104;2022-08-25T00:20:21;23.40;79.10
67161;DHT22;54088;52.238;21.104;2022-08-25T00:22:47;23.40;78.70
67161;DHT22;54088;52.238;21.104;2022-08-25T00:25:14;23.40;78.70
67161;DHT22;54088;52.238;21.104;2022-08-25T00:27:40;23.30;78.80
67161;DHT22;54088;52.238;21.104;2022-08-25T00:30:07;23.40;78.90
67161;DHT22;54088;52.238;21.104;2022-08-25T00:32:33;23.30;78.90
67161;DHT22;54088;52.238;21.104;2022-08-25T00:34:59;23.30;79.10
67161;DHT22;54088;52.238;21.104;2022-08-25T00:37:25;23.40;79.10
67161;DHT22;54088;52.238;21.104;2022-08-25T00:39:51;23.30;79.10
67161;DHT22;54088;52.238;21.104;2022-08-25T00:42:17;23.40;79.20
67161;DHT22;54088;52.238;21.104;2022-08-25T00:44:45;23.40;79.30
67161;DHT22;54088;52.238;21.104;2022-08-25T00:47:11;23.30;79.40
67161;DHT22;54088;52.238;21.104;2022-08-25T00:49:47;23.30;79.30
67161;DHT22;54088;52.238;21.104;2022-08-25T00:52:15;23.30;79.50
67161;DHT22;54088;52.238;21.104;2022-08-25T00:57:16;23.20;79.70
67161;DHT22;54088;52.238;21.104;2022-08-25T00:59:43;23.30;79.80
67161;DHT22;54088;52.238;21.104;2022-08-25T01:02:10;23.30;80.00
67161;DHT22;54088;52.238;21.104;2022-08-25T01:04:36;23.30;80.00
67161;DHT22;54088;52.238;21.104;2022-08-25T01:07:02;23.20;80.00
67161;DHT22;54088;52.238;21.104;2022-08-25T01:09:30;23.20;80.00
67161;DHT22;54088;52.238;21.104;2022-08-25T01:11:57;23.20;80.10
67161;DHT22;54088;52.238;21.104;2022-08-25T01:14:23;23.30;80.30
67161;DHT22;54088;52.238;21.104;2022-08-25T01:16:49;23.30;80.30
67161;DHT22;54088;52.238;21.104;2022-08-25T01:19:16;23.20;80.30
67161;DHT22;54088;52.238;21.104;2022-08-25T01:21:45;23.20;80.50
67161;DHT22;54088;52.238;21.104;2022-08-25T01:24:25;23.20;80.70
67161;DHT22;54088;52.238;21.104;2022-08-25T01:26:53;23.20;80.70
67161;DHT22;54088;52.238;21.104;2022-08-25T01:29:19;23.20;80.90
67161;DHT22;54088;52.238;21.104;2022-08-25T01:31:53;23.20;81.20
67161;DHT22;54088;52.238;21.104;2022-08-25T01:34:21;23.10;81.40
67161;DHT22;54088;52.238;21.104;2022-08-25T01:36:47;23.20;81.40
67161;DHT22;54088;52.238;21.104;2022-08-25T01:39:13;23.20;81.60
67161;DHT22;54088;52.238;21.104;2022-08-25T01:44:24;23.30;81.80
67161;DHT22;54088;52.238;21.104;2022-08-25T01:46:51;23.30;82.10
67161;DHT22;54088;52.238;21.104;2022-08-25T01:49:17;23.30;82.10
67161;DHT22;54088;52.238;21.104;2022-08-25T01:51:55;23.30;82.30
67161;DHT22;54088;52.238;21.104;2022-08-25T01:54:21;23.30;82.40
67161;DHT22;54088;52.238;21.104;2022-08-25T01:56:47;23.30;82.50
67161;DHT22;54088;52.238;21.104;2022-08-25T01:59:15;23.30;82.50
67161;DHT22;54088;52.238;21.104;2022-08-25T02:01:41;23.30;82.50
67161;DHT22;54088;52.238;21.104;2022-08-25T02:04:07;23.30;82.70
67161;DHT22;54088;52.238;21.104;2022-08-25T02:06:33;23.30;83.00
67161;DHT22;54088;52.238;21.104;2022-08-25T02:09:03;23.30;83.10
67161;DHT22;54088;52.238;21.104;2022-08-25T02:11:30;23.30;83.10
67161;DHT22;54088;52.238;21.104;2022-08-25T02:13:57;23.30;83.40
67161;DHT22;54088;52.238;21.104;2022-08-25T02:16:28;23.30;83.40
67161;DHT22;54088;52.238;21.104;2022-08-25T02:18:55;23.30;83.50
67161;DHT22;54088;52.238;21.104;2022-08-25T02:21:21;23.30;83.50
67161;DHT22;54088;52.238;21.104;2022-08-25T02:23:47;23.30;83.50
67161;DHT22;54088;52.238;21.104;2022-08-25T02:26:13;23.30;83.60
67161;DHT22;54088;52.238;21.104;2022-08-25T02:28:44;23.30;83.60
67161;DHT22;54088;52.238;21.104;2022-08-25T02:31:11;23.30;83.70
67161;DHT22;54088;52.238;21.104;2022-08-25T02:33:37;23.30;83.70
67161;DHT22;54088;52.238;21.104;2022-08-25T02:36:03;23.30;83.70
67161;DHT22;54088;52.238;21.104;2022-08-25T02:38:29;23.30;83.60
67161;DHT22;54088;52.238;21.104;2022-08-25T02:40:57;23.30;83.80
67161;DHT22;54088;52.238;21.104;2022-08-25T02:43:24;23.30;83.80
67161;DHT22;54088;52.238;21.104;2022-08-25T02:45:51;23.30;83.90
67161;DHT22;54088;52.238;21.104;2022-08-25T02:48:17;23.30;83.90
67161;DHT22;54088;52.238;21.104;2022-08-25T02:50:47;23.30;83.80
67161;DHT22;54088;52.238;21.104;2022-08-25T02:53:13;23.30;83.70
67161;DHT22;54088;52.238;21.104;2022-08-25T02:55:38;23.30;83.80
67161;DHT22;54088;52.238;21.104;2022-08-25T02:58:04;23.30;83.60
67161;DHT22;54088;52.238;21.104;2022-08-25T03:00:30;23.30;83.70
67161;DHT22;54088;52.238;21.104;2022-08-25T03:02:56;23.30;84.40
67161;DHT22;54088;52.238;21.104;2022-08-25T03:05:22;23.30;83.50
67161;DHT22;54088;52.238;21.104;2022-08-25T03:07:47;23.40;83.40
67161;DHT22;54088;52.238;21.104;2022-08-25T03:10:16;23.30;83.60
67161;DHT22;54088;52.238;21.104;2022-08-25T03:12:43;23.30;83.80
67161;DHT22;54088;52.238;21.104;2022-08-25T03:15:11;23.30;83.80
67161;DHT22;54088;52.238;21.104;2022-08-25T03:17:41;23.30;83.70
67161;DHT22;54088;52.238;21.104;2022-08-25T03:20:07;23.30;83.50
67161;DHT22;54088;52.238;21.104;2022-08-25T03:22:33;23.30;83.40
67161;DHT22;54088;52.238;21.104;2022-08-25T03:24:59;23.30;83.40
67161;DHT22;54088;52.238;21.104;2022-08-25T03:27:43;23.30;83.50
67161;DHT22;54088;52.238;21.104;2022-08-25T03:30:10;23.30;83.50
67161;DHT22;54088;52.238;21.104;2022-08-25T03:32:36;23.30;83.50
67161;DHT22;54088;52.238;21.104;2022-08-25T03:35:03;23.30;83.60
67161;DHT22;54088;52.238;21.104;2022-08-25T03:37:29;23.30;83.70
67161;DHT22;54088;52.238;21.104;2022-08-25T03:39:54;23.30;83.60
67161;DHT22;54088;52.238;21.104;2022-08-25T03:42:20;23.30;83.50
67161;DHT22;54088;52.238;21.104;2022-08-25T03:44:45;23.30;83.60
67161;DHT22;54088;52.238;21.104;2022-08-25T03:47:11;23.30;83.70
67161;DHT22;54088;52.238;21.104;2022-08-25T03:49:37;23.30;83.80
67161;DHT22;54088;52.238;21.104;2022-08-25T03:52:02;23.30;83.80
67161;DHT22;54088;52.238;21.104;2022-08-25T03:54:28;23.30;83.70
67161;DHT22;54088;52.238;21.104;2022-08-25T03:56:54;23.30;83.80
67161;DHT22;54088;52.238;21.104;2022-08-25T03:59:20;23.20;84.00
67161;DHT22;54088;52.238;21.104;2022-08-25T04:01:46;23.20;84.00
67161;DHT22;54088;52.238;21.104;2022-08-25T04:04:14;23.20;84.00
67161;DHT22;54088;52.238;21.104;2022-08-25T04:06:41;23.20;84.20
67161;DHT22;54088;52.238;21.104;2022-08-25T04:09:08;23.10;84.60
67161;DHT22;54088;52.238;21.104;2022-08-25T04:11:34;23.10;84.70
67161;DHT22;54088;52.238;21.104;2022-08-25T04:14:00;23.10;84.70
67161;DHT22;54088;52.238;21.104;2022-08-25T04:16:29;23.00;84.80
67161;DHT22;54088;52.238;21.104;2022-08-25T04:18:56;23.10;84.70
67161;DHT22;54088;52.238;21.104;2022-08-25T04:21:23;23.20;84.40
67161;DHT22;54088;52.238;21.104;2022-08-25T04:23:50;23.20;84.50
67161;DHT22;54088;52.238;21.104;2022-08-25T04:26:23;23.20;84.30
67161;DHT22;54088;52.238;21.104;2022-08-25T04:28:49;23.20;84.90
67161;DHT22;54088;52.238;21.104;2022-08-25T04:31:16;23.10;84.40
67161;DHT22;54088;52.238;21.104;2022-08-25T04:33:43;23.10;84.60
67161;DHT22;54088;52.238;21.104;2022-08-25T04:36:10;23.10;84.60
67161;DHT22;54088;52.238;21.104;2022-08-25T04:38:40;23.10;84.60
67161;DHT22;54088;52.238;21.104;2022-08-25T04:41:08;23.10;84.40
67161;DHT22;54088;52.238;21.104;2022-08-25T04:43:35;23.20;84.30
67161;DHT22;54088;52.238;21.104;2022-08-25T04:46:09;23.30;84.20
67161;DHT22;54088;52.238;21.104;2022-08-25T04:48:37;23.30;84.00
67161;DHT22;54088;52.238;21.104;2022-08-25T04:51:10;23.40;83.90
67161;DHT22;54088;52.238;21.104;2022-08-25T04:53:36;23.50;83.30
67161;DHT22;54088;52.238;21.104;2022-08-25T04:56:06;23.40;83.30
67161;DHT22;54088;52.238;21.104;2022-08-25T04:58:32;23.50;83.10
67161;DHT22;54088;52.238;21.104;2022-08-25T05:01:08;23.60;82.80
67161;DHT22;54088;52.238;21.104;2022-08-25T05:03:35;23.80;82.10
67161;DHT22;54088;52.238;21.104;2022-08-25T05:06:02;23.80;81.90
67161;DHT22;54088;52.238;21.104;2022-08-25T05:08:27;23.90;81.50
67161;DHT22;54088;52.238;21.104;2022-08-25T05:10:53;24.00;81.20
67161;DHT22;54088;52.238;21.104;2022-08-25T05:13:22;24.20;80.40
67161;DHT22;54088;52.238;21.104;2022-08-25T05:15:56;24.70;79.00
67161;DHT22;54088;52.238;21.104;2022-08-25T05:18:24;25.10;77.70
67161;DHT22;54088;52.238;21.104;2022-08-25T05:20:51;25.50;75.70
67161;DHT22;54088;52.238;21.104;2022-08-25T05:23:19;25.80;74.80
67161;DHT22;54088;52.238;21.104;2022-08-25T05:25:45;26.30;74.00
67161;DHT22;54088;52.238;21.104;2022-08-25T05:28:11;26.60;71.60
67161;DHT22;54088;52.238;21.104;2022-08-25T05:30:38;27.00;70.80
67161;DHT22;54088;52.238;21.104;2022-08-25T05:33:04;27.30;69.50
67161;DHT22;54088;52.238;21.104;2022-08-25T05:35:30;27.70;67.10
67161;DHT22;54088;52.238;21.104;2022-08-25T05:37:56;27.80;66.10
67161;DHT22;54088;52.238;21.104;2022-08-25T05:40:22;28.10;65.70
67161;DHT22;54088;52.238;21.104;2022-08-25T05:42:49;28.20;65.40
67161;DHT22;54088;52.238;21.104;2022-08-25T05:45:14;28.40;64.50
67161;DHT22;54088;52.238;21.104;2022-08-25T05:47:40;28.60;64.50
67161;DHT22;54088;52.238;21.104;2022-08-25T05:50:06;28.80;63.50
67161;DHT22;54088;52.238;21.104;2022-08-25T05:52:33;28.90;63.40
67161;DHT22;54088;52.238;21.104;2022-08-25T05:54:59;29.10;62.40
67161;DHT22;54088;52.238;21.104;2022-08-25T05:57:24;29.40;62.30
67161;DHT22;54088;52.238;21.104;2022-08-25T05:59:50;29.70;62.00
67161;DHT22;54088;52.238;21.104;2022-08-25T06:02:17;29.90;61.30
67161;DHT22;54088;52.238;21.104;2022-08-25T06:05:01;30.30;59.80
67161;DHT22;54088;52.238;21.104;2022-08-25T06:07:27;30.60;58.60
67161;DHT22;54088;52.238;21.104;2022-08-25T06:09:52;30.80;57.80
67161;DHT22;54088;52.238;21.104;2022-08-25T06:12:18;31.20;57.20
67161;DHT22;54088;52.238;21.104;2022-08-25T06:14:47;31.40;55.70
67161;DHT22;54088;52.238;21.104;2022-08-25T06:17:14;31.80;54.90
67161;DHT22;54088;52.238;21.104;2022-08-25T06:19:39;32.20;54.90
67161;DHT22;54088;52.238;21.104;2022-08-25T06:22:05;32.70;54.30
67161;DHT22;54088;52.238;21.104;2022-08-25T06:24:31;33.20;52.60
67161;DHT22;54088;52.238;21.104;2022-08-25T06:26:57;33.70;52.10
67161;DHT22;54088;52.238;21.104;2022-08-25T06:29:23;34.40;50.60
67161;DHT22;54088;52.238;21.104;2022-08-25T06:31:49;35.10;49.80
67161;DHT22;54088;52.238;21.104;2022-08-25T06:34:16;35.90;47.50
67161;DHT22;54088;52.238;21.104;2022-08-25T06:36:42;36.40;47.90
67161;DHT22;54088;52.238;21.104;2022-08-25T06:39:08;36.90;46.90
67161;DHT22;54088;52.238;21.104;2022-08-25T06:41:34;36.50;45.50
67161;DHT22;54088;52.238;21.104;2022-08-25T06:44:00;36.70;46.20
67161;DHT22;54088;52.238;21.104;2022-08-25T06:46:27;36.90;45.60
67161;DHT22;54088;52.238;21.104;2022-08-25T06:48:54;37.40;44.80
67161;DHT22;54088;52.238;21.104;2022-08-25T06:51:22;37.40;43.60
67161;DHT22;54088;52.238;21.104;2022-08-25T06:53:48;37.40;43.70
67161;DHT22;54088;52.238;21.104;2022-08-25T06:56:15;37.90;42.90
67161;DHT22;54088;52.238;21.104;2022-08-25T06:58:41;37.80;42.40
67161;DHT22;54088;52.238;21.104;2022-08-25T07:01:11;37.90;42.70
67161;DHT22;54088;52.238;21.104;2022-08-25T07:03:38;37.70;43.60
67161;DHT22;54088;52.238;21.104;2022-08-25T07:06:04;37.20;44.30
67161;DHT22;54088;52.238;21.104;2022-08-25T07:08:30;36.40;44.50
67161;DHT22;54088;52.238;21.104;2022-08-25T07:10:57;35.80;44.10
67161;DHT22;54088;52.238;21.104;2022-08-25T07:13:23;35.00;45.80
67161;DHT22;54088;52.238;21.104;2022-08-25T07:15:53;34.60;46.80
67161;DHT22;54088;52.238;21.104;2022-08-25T07:18:19;34.60;47.90
67161;DHT22;54088;52.238;21.104;2022-08-25T07:20:45;34.50;46.60
67161;DHT22;54088;52.238;21.104;2022-08-25T07:23:11;34.20;47.30
67161;DHT22;54088;52.238;21.104;2022-08-25T07:25:37;34.00;47.30
67161;DHT22;54088;52.238;21.104;2022-08-25T07:28:02;33.70;48.90
67161;DHT22;54088;52.238;21.104;2022-08-25T07:30:28;33.80;48.70
67161;DHT22;54088;52.238;21.104;2022-08-25T07:32:54;34.10;47.70
67161;DHT22;54088;52.238;21.104;2022-08-25T07:35:20;34.30;46.70
67161;DHT22;54088;52.238;21.104;2022-08-25T07:37:53;34.60;47.20
67161;DHT22;54088;52.238;21.104;2022-08-25T07:40:27;34.60;47.90
67161;DHT22;54088;52.238;21.104;2022-08-25T07:42:56;34.70;46.40
67161;DHT22;54088;52.238;21.104;2022-08-25T07:45:24;34.50;46.50
67161;DHT22;54088;52.238;21.104;2022-08-25T07:48:04;34.60;46.50
67161;DHT22;54088;52.238;21.104;2022-08-25T07:50:31;34.50;47.10
67161;DHT22;54088;52.238;21.104;2022-08-25T07:52:57;34.70;47.30
67161;DHT22;54088;52.238;21.104;2022-08-25T07:55:26;34.60;46.00
67161;DHT22;54088;52.238;21.104;2022-08-25T07:57:53;34.60;46.40
67161;DHT22;54088;52.238;21.104;2022-08-25T08:00:19;34.70;46.40
67161;DHT22;54088;52.238;21.104;2022-08-25T08:02:45;34.70;47.10
67161;DHT22;54088;52.238;21.104;2022-08-25T08:05:11;34.60;47.30
67161;DHT22;54088;52.238;21.104;2022-08-25T08:07:37;34.40;46.80
67161;DHT22;54088;52.238;21.104;2022-08-25T08:10:05;34.60;45.80
67161;DHT22;54088;52.238;21.104;2022-08-25T08:12:32;34.60;45.80
67161;DHT22;54088;52.238;21.104;2022-08-25T08:14:58;34.60;45.30
67161;DHT22;54088;52.238;21.104;2022-08-25T08:17:24;34.50;46.00
67161;DHT22;54088;52.238;21.104;2022-08-25T08:19:50;34.30;45.80
67161;DHT22;54088;52.238;21.104;2022-08-25T08:22:17;34.10;47.30
67161;DHT22;54088;52.238;21.104;2022-08-25T08:24:43;33.90;45.80
67161;DHT22;54088;52.238;21.104;2022-08-25T08:27:12;34.00;46.60
67161;DHT22;54088;52.238;21.104;2022-08-25T08:29:39;34.10;48.50
67161;DHT22;54088;52.238;21.104;2022-08-25T08:32:08;34.50;46.30
67161;DHT22;54088;52.238;21.104;2022-08-25T08:34:34;34.70;43.20
67161;DHT22;54088;52.238;21.104;2022-08-25T08:37:01;34.60;43.70
67161;DHT22;54088;52.238;21.104;2022-08-25T08:39:28;34.60;43.50
67161;DHT22;54088;52.238;21.104;2022-08-25T08:52:54;33.30;47.10
67161;DHT22;54088;52.238;21.104;2022-08-25T08:55:31;33.30;45.80
67161;DHT22;54088;52.238;21.104;2022-08-25T08:58:16;33.20;45.20
67161;DHT22;54088;52.238;21.104;2022-08-25T09:00:47;33.10;45.90
67161;DHT22;54088;52.238;21.104;2022-08-25T09:03:37;32.80;45.80
67161;DHT22;54088;52.238;21.104;2022-08-25T09:06:17;32.80;48.50
67161;DHT22;54088;52.238;21.104;2022-08-25T09:08:44;32.70;49.50
67161;DHT22;54088;52.238;21.104;2022-08-25T09:28:53;32.60;49.50
67161;DHT22;54088;52.238;21.104;2022-08-25T09:31:33;32.40;48.00
67161;DHT22;54088;52.238;21.104;2022-08-25T09:34:02;32.40;49.50
67161;DHT22;54088;52.238;21.104;2022-08-25T09:36:29;32.40;48.80
67161;DHT22;54088;52.238;21.104;2022-08-25T09:38:55;32.30;48.50
67161;DHT22;54088;52.238;21.104;2022-08-25T09:41:52;32.20;44.90
67161;DHT22;54088;52.238;21.104;2022-08-25T09:44:25;32.40;46.10
67161;DHT22;54088;52.238;21.104;2022-08-25T09:47:06;32.40;41.30
67161;DHT22;54088;52.238;21.104;2022-08-25T09:49:43;32.40;40.90
67161;DHT22;54088;52.238;21.104;2022-08-25T09:55:13;32.40;41.60
67161;DHT22;54088;52.238;21.104;2022-08-25T10:02:42;32.50;39.90
67161;DHT22;54088;52.238;21.104;2022-08-25T10:05:20;32.50;38.50
67161;DHT22;54088;52.238;21.104;2022-08-25T10:07:58;32.50;39.90
67161;DHT22;54088;52.238;21.104;2022-08-25T10:12:53;32.40;40.20
67161;DHT22;54088;52.238;21.104;2022-08-25T10:15:23;32.50;39.40
67161;DHT22;54088;52.238;21.104;2022-08-25T10:17:49;32.60;40.20
67161;DHT22;54088;52.238;21.104;2022-08-25T10:21:34;32.70;35.30
67161;DHT22;54088;52.238;21.104;2022-08-25T10:24:00;32.70;36.00
67161;DHT22;54088;52.238;21.104;2022-08-25T10:55:59;32.70;33.50
67161;DHT22;54088;52.238;21.104;2022-08-25T11:04:20;32.70;35.20
67161;DHT22;54088;52.238;21.104;2022-08-25T11:06:56;32.70;36.40
67161;DHT22;54088;52.238;21.104;2022-08-25T11:09:28;32.70;33.60
67161;DHT22;54088;52.238;21.104;2022-08-25T11:12:04;32.80;34.70
67161;DHT22;54088;52.238;21.104;2022-08-25T11:14:40;32.90;34.10
67161;DHT22;54088;52.238;21.104;2022-08-25T11:17:19;32.70;32.40
67161;DHT22;54088;52.238;21.104;2022-08-25T11:19:51;32.70;33.20
67161;DHT22;54088;52.238;21.104;2022-08-25T11:22:45;32.70;33.80
67161;DHT22;54088;52.238;21.104;2022-08-25T11:30:21;32.70;35.90
67161;DHT22;54088;52.238;21.104;2022-08-25T11:32:50;32.80;33.40
67161;DHT22;54088;52.238;21.104;2022-08-25T11:35:40;32.70;34.20
67161;DHT22;54088;52.238;21.104;2022-08-25T11:46:38;32.50;33.80
67161;DHT22;54088;52.238;21.104;2022-08-25T11:58:48;32.40;33.40
67161;DHT22;54088;52.238;21.104;2022-08-25T12:04:36;32.50;32.90
67161;DHT22;54088;52.238;21.104;2022-08-25T12:30:59;32.30;32.80
67161;DHT22;54088;52.238;21.104;2022-08-25T12:33:40;32.30;32.90
67161;DHT22;54088;52.238;21.104;2022-08-25T12:36:14;32.40;32.70
67161;DHT22;54088;52.238;21.104;2022-08-25T12:38:50;32.40;31.70
67161;DHT22;54088;52.238;21.104;2022-08-25T12:41:21;32.40;32.30
67161;DHT22;54088;52.238;21.104;2022-08-25T12:43:49;32.40;33.50
67161;DHT22;54088;52.238;21.104;2022-08-25T12:49:14;32.40;33.60
67161;DHT22;54088;52.238;21.104;2022-08-25T12:52:11;32.40;34.80
67161;DHT22;54088;52.238;21.104;2022-08-25T12:54:56;32.40;33.90
67161;DHT22;54088;52.238;21.104;2022-08-25T12:57:49;32.40;34.10
67161;DHT22;54088;52.238;21.104;2022-08-25T13:00:27;32.40;33.50
67161;DHT22;54088;52.238;21.104;2022-08-25T13:11:13;32.30;32.30
67161;DHT22;54088;52.238;21.104;2022-08-25T13:13:47;32.40;33.50
67161;DHT22;54088;52.238;21.104;2022-08-25T13:16:18;32.40;32.50
67161;DHT22;54088;52.238;21.104;2022-08-25T13:18:44;32.40;31.30
67161;DHT22;54088;52.238;21.104;2022-08-25T13:21:22;32.40;33.10
67161;DHT22;54088;52.238;21.104;2022-08-25T13:23:51;32.30;34.20
67161;DHT22;54088;52.238;21.104;2022-08-25T13:26:41;32.20;32.90
67161;DHT22;54088;52.238;21.104;2022-08-25T13:34:20;32.30;31.80
67161;DHT22;54088;52.238;21.104;2022-08-25T13:36:48;32.30;31.80
67161;DHT22;54088;52.238;21.104;2022-08-25T13:39:33;32.30;31.10
67161;DHT22;54088;52.238;21.104;2022-08-25T13:42:00;32.20;33.30
67161;DHT22;54088;52.238;21.104;2022-08-25T13:44:29;32.20;32.40
67161;DHT22;54088;52.238;21.104;2022-08-25T13:47:19;32.20;32.40
67161;DHT22;54088;52.238;21.104;2022-08-25T13:55:25;32.30;33.70
67161;DHT22;54088;52.238;21.104;2022-08-25T13:57:53;32.20;33.70
67161;DHT22;54088;52.238;21.104;2022-08-25T14:00:36;32.20;32.50
67161;DHT22;54088;52.238;21.104;2022-08-25T14:03:05;32.20;33.00
67161;DHT22;54088;52.238;21.104;2022-08-25T14:05:35;32.30;32.10
67161;DHT22;54088;52.238;21.104;2022-08-25T14:08:02;32.20;32.00
67161;DHT22;54088;52.238;21.104;2022-08-25T14:10:43;32.30;31.80
67161;DHT22;54088;52.238;21.104;2022-08-25T14:15:52;32.30;33.80
67161;DHT22;54088;52.238;21.104;2022-08-25T14:18:28;32.20;33.70
67161;DHT22;54088;52.238;21.104;2022-08-25T14:20:56;32.20;33.50
67161;DHT22;54088;52.238;21.104;2022-08-25T14:23:27;32.20;33.30
67161;DHT22;54088;52.238;21.104;2022-08-25T14:25:55;32.20;34.30
67161;DHT22;54088;52.238;21.104;2022-08-25T14:28:25;32.20;34.00
67161;DHT22;54088;52.238;21.104;2022-08-25T14:30:54;32.10;33.50
67161;DHT22;54088;52.238;21.104;2022-08-25T14:33:24;32.10;33.50
67161;DHT22;54088;52.238;21.104;2022-08-25T14:35:52;32.20;33.60
67161;DHT22;54088;52.238;21.104;2022-08-25T14:38:18;32.20;34.40
67161;DHT22;54088;52.238;21.104;2022-08-25T14:40:44;32.20;33.30
67161;DHT22;54088;52.238;21.104;2022-08-25T14:43:11;32.30;33.20
67161;DHT22;54088;52.238;21.104;2022-08-25T14:45:40;32.20;33.80
67161;DHT22;54088;52.238;21.104;2022-08-25T14:48:07;32.20;33.50
67161;DHT22;54088;52.238;21.104;2022-08-25T14:50:33;32.20;33.20
67161;DHT22;54088;52.238;21.104;2022-08-25T14:53:00;32.20;33.00
67161;DHT22;54088;52.238;21.104;2022-08-25T14:55:26;32.10;33.40
67161;DHT22;54088;52.238;21.104;2022-08-25T14:57:52;32.10;33.70
67161;DHT22;54088;52.238;21.104;2022-08-25T15:00:18;32.20;34.30
67161;DHT22;54088;52.238;21.104;2022-08-25T15:02:46;32.10;34.00
67161;DHT22;54088;52.238;21.104;2022-08-25T15:05:15;32.10;33.40
67161;DHT22;54088;52.238;21.104;2022-08-25T15:07:41;32.10;32.80
67161;DHT22;54088;52.238;21.104;2022-08-25T15:10:26;32.10;32.60
67161;DHT22;54088;52.238;21.104;2022-08-25T15:12:51;32.10;33.00
67161;DHT22;54088;52.238;21.104;2022-08-25T15:15:18;32.10;32.60
67161;DHT22;54088;52.238;21.104;2022-08-25T15:17:44;32.10;32.70
67161;DHT22;54088;52.238;21.104;2022-08-25T15:20:11;32.00;32.10
67161;DHT22;54088;52.238;21.104;2022-08-25T15:22:37;32.00;32.30
67161;DHT22;54088;52.238;21.104;2022-08-25T15:25:03;32.00;31.80
67161;DHT22;54088;52.238;21.104;2022-08-25T15:27:29;32.00;32.10
67161;DHT22;54088;52.238;21.104;2022-08-25T15:29:54;32.00;32.70
67161;DHT22;54088;52.238;21.104;2022-08-25T15:32:20;31.90;33.80
67161;DHT22;54088;52.238;21.104;2022-08-25T15:34:46;31.90;33.30
67161;DHT22;54088;52.238;21.104;2022-08-25T15:37:14;31.90;33.70
67161;DHT22;54088;52.238;21.104;2022-08-25T15:39:41;31.80;33.60
67161;DHT22;54088;52.238;21.104;2022-08-25T15:42:08;31.70;32.90
67161;DHT22;54088;52.238;21.104;2022-08-25T15:44:35;31.70;33.10
67161;DHT22;54088;52.238;21.104;2022-08-25T15:47:00;31.70;33.10
67161;DHT22;54088;52.238;21.104;2022-08-25T15:49:27;31.70;33.30
67161;DHT22;54088;52.238;21.104;2022-08-25T15:51:54;31.70;33.50
67161;DHT22;54088;52.238;21.104;2022-08-25T15:54:24;31.70;34.30
67161;DHT22;54088;52.238;21.104;2022-08-25T15:56:50;31.60;33.90
67161;DHT22;54088;52.238;21.104;2022-08-25T15:59:16;31.50;33.30
67161;DHT22;54088;52.238;21.104;2022-08-25T16:01:42;31.50;33.40
67161;DHT22;54088;52.238;21.104;2022-08-25T16:04:09;31.50;33.40
67161;DHT22;54088;52.238;21.104;2022-08-25T16:06:35;31.40;33.40
67161;DHT22;54088;52.238;21.104;2022-08-25T16:09:02;31.40;32.90
67161;DHT22;54088;52.238;21.104;2022-08-25T16:11:29;31.30;33.10
67161;DHT22;54088;52.238;21.104;2022-08-25T16:13:55;31.30;33.40
67161;DHT22;54088;52.238;21.104;2022-08-25T16:16:23;31.30;33.40
67161;DHT22;54088;52.238;21.104;2022-08-25T16:18:50;31.20;33.40
67161;DHT22;54088;52.238;21.104;2022-08-25T16:21:19;31.30;34.40
67161;DHT22;54088;52.238;21.104;2022-08-25T16:23:48;31.20;33.70
67161;DHT22;54088;52.238;21.104;2022-08-25T16:26:14;31.20;33.60
67161;DHT22;54088;52.238;21.104;2022-08-25T16:28:41;31.10;34.80
67161;DHT22;54088;52.238;21.104;2022-08-25T16:31:09;31.10;33.90
67161;DHT22;54088;52.238;21.104;2022-08-25T16:33:35;31.00;33.90
67161;DHT22;54088;52.238;21.104;2022-08-25T16:36:12;31.00;34.90
67161;DHT22;54088;52.238;21.104;2022-08-25T16:38:39;30.90;34.80
67161;DHT22;54088;52.238;21.104;2022-08-25T16:41:07;30.80;36.30
67161;DHT22;54088;52.238;21.104;2022-08-25T16:43:33;30.80;34.70
67161;DHT22;54088;52.238;21.104;2022-08-25T16:46:00;30.70;34.50
67161;DHT22;54088;52.238;21.104;2022-08-25T16:48:27;30.70;35.10
67161;DHT22;54088;52.238;21.104;2022-08-25T16:50:53;30.60;35.00
67161;DHT22;54088;52.238;21.104;2022-08-25T16:53:19;30.50;35.00
67161;DHT22;54088;52.238;21.104;2022-08-25T16:56:04;30.50;35.10
67161;DHT22;54088;52.238;21.104;2022-08-25T16:58:30;30.50;35.50
67161;DHT22;54088;52.238;21.104;2022-08-25T17:01:07;30.40;36.10
67161;DHT22;54088;52.238;21.104;2022-08-25T17:03:34;30.30;36.20
67161;DHT22;54088;52.238;21.104;2022-08-25T17:06:01;30.20;35.80
67161;DHT22;54088;52.238;21.104;2022-08-25T17:08:27;30.20;36.00
67161;DHT22;54088;52.238;21.104;2022-08-25T17:11:04;30.10;36.80
67161;DHT22;54088;52.238;21.104;2022-08-25T17:13:31;30.00;37.40
67161;DHT22;54088;52.238;21.104;2022-08-25T17:15:56;29.90;37.10
67161;DHT22;54088;52.238;21.104;2022-08-25T17:18:23;29.90;37.80
67161;DHT22;54088;52.238;21.104;2022-08-25T17:21:06;29.80;37.80
67161;DHT22;54088;52.238;21.104;2022-08-25T17:23:33;29.70;37.00
67161;DHT22;54088;52.238;21.104;2022-08-25T17:25:59;29.70;37.20
67161;DHT22;54088;52.238;21.104;2022-08-25T17:28:26;29.60;37.20
67161;DHT22;54088;52.238;21.104;2022-08-25T17:30:52;29.50;37.10
67161;DHT22;54088;52.238;21.104;2022-08-25T17:33:19;29.40;37.50
67161;DHT22;54088;52.238;21.104;2022-08-25T17:35:47;29.30;37.40
67161;DHT22;54088;52.238;21.104;2022-08-25T17:38:16;29.20;37.60
67161;DHT22;54088;52.238;21.104;2022-08-25T17:40:42;29.20;38.00
67161;DHT22;54088;52.238;21.104;2022-08-25T17:43:08;29.10;38.00
67161;DHT22;54088;52.238;21.104;2022-08-25T17:45:34;29.00;38.40
67161;DHT22;54088;52.238;21.104;2022-08-25T17:48:00;29.00;38.70
67161;DHT22;54088;52.238;21.104;2022-08-25T17:50:26;28.90;38.80
67161;DHT22;54088;52.238;21.104;2022-08-25T17:52:52;28.80;39.00
67161;DHT22;54088;52.238;21.104;2022-08-25T17:55:18;28.70;39.10
67161;DHT22;54088;52.238;21.104;2022-08-25T17:57:49;28.60;39.90
67161;DHT22;54088;52.238;21.104;2022-08-25T18:00:20;28.60;39.70